createdAt,value
2022-09-14T00:01:25.232Z,1.27
2022-09-14T00:03:58.219Z,1.13
2022-09-14T00:06:25.769Z,1.27
2022-09-14T00:08:54.661Z,1.45
2022-09-14T00:11:24.102Z,1.08
2022-09-14T00:13:51.263Z,1.27
2022-09-14T00:16:21.095Z,1.20
2022-09-14T00:18:51.993Z,1.30
2022-09-14T00:21:19.082Z,1.50
2022-09-14T00:23:45.863Z,1.38
2022-09-14T00:26:16.701Z,1.40
2022-09-14T00:28:45.864Z,1.20
2022-09-14T00:31:13.611Z,1.35
2022-09-14T00:33:42.693Z,1.00
2022-09-14T00:36:12.520Z,1.40
2022-09-14T00:38:42.228Z,1.55
2022-09-14T00:41:14.715Z,1.25
2022-09-14T00:44:06.867Z,1.17
2022-09-14T00:46:41.424Z,1.40
2022-09-14T00:49:16.567Z,1.10
2022-09-14T00:52:01.121Z,1.40
2022-09-14T00:54:27.823Z,1.25
2022-09-14T00:56:56.679Z,1.30
2022-09-14T00:59:27.295Z,1.20
2022-09-14T01:01:54.856Z,1.27
2022-09-14T01:04:22.335Z,1.75
2022-09-14T01:07:00.949Z,1.30
2022-09-14T01:09:54.983Z,1.42
2022-09-14T01:12:43.313Z,1.10
2022-09-14T01:15:25.298Z,1.38
2022-09-14T01:18:08.299Z,1.17
2022-09-14T01:20:34.972Z,1.15
2022-09-14T01:23:17.284Z,1.20
2022-09-14T01:26:17.877Z,1.35
2022-09-14T01:28:54.419Z,1.52
2022-09-14T01:32:02.142Z,1.45
2022-09-14T01:34:38.374Z,1.30
2022-09-14T01:37:19.168Z,1.30
2022-09-14T01:39:56.807Z,1.42
2022-09-14T01:42:26.551Z,1.55
2022-09-14T01:44:58.269Z,1.52
2022-09-14T01:47:28.615Z,1.50
2022-09-14T01:52:44.841Z,1.60
2022-09-14T01:55:25.948Z,1.70
2022-09-14T01:58:11.820Z,1.50
2022-09-14T02:00:43.836Z,1.30
2022-09-14T02:03:16.198Z,1.25
2022-09-14T02:05:53.396Z,1.23
2022-09-14T02:08:20.353Z,1.58
2022-09-14T02:10:47.082Z,1.23
2022-09-14T02:13:13.905Z,1.95
2022-09-14T02:15:40.566Z,1.45
2022-09-14T02:18:07.394Z,1.20
2022-09-14T02:20:42.878Z,1.27
2022-09-14T02:23:09.579Z,1.35
2022-09-14T02:25:36.847Z,1.48
2022-09-14T02:28:04.293Z,1.60
2022-09-14T02:30:42.320Z,1.30
2022-09-14T02:33:23.036Z,1.65
2022-09-14T02:35:55.509Z,1.40
2022-09-14T02:38:34.313Z,1.50
2022-09-14T02:41:17.887Z,2.13
2022-09-14T02:44:21.665Z,2.35
2022-09-14T02:46:55.623Z,1.95
2022-09-14T02:49:27.515Z,1.88
2022-09-14T02:52:16.645Z,2.50
2022-09-14T02:55:09.940Z,2.88
2022-09-14T02:58:14.459Z,2.80
2022-09-14T03:00:44.039Z,2.47
2022-09-14T03:03:13.115Z,2.53
2022-09-14T03:05:40.440Z,2.45
2022-09-14T03:08:07.888Z,1.70
2022-09-14T03:10:34.797Z,2.13
2022-09-14T03:13:01.618Z,1.98
2022-09-14T03:15:29.653Z,1.90
2022-09-14T03:17:56.620Z,2.10
2022-09-14T03:20:28.859Z,2.08
2022-09-14T03:22:55.792Z,2.42
2022-09-14T03:25:25.475Z,2.20
2022-09-14T03:27:55.780Z,2.22
2022-09-14T03:30:23.112Z,2.45
2022-09-14T03:32:50.276Z,2.60
2022-09-14T03:35:17.530Z,2.40
2022-09-14T03:37:45.708Z,2.35
2022-09-14T03:40:19.286Z,2.40
2022-09-14T03:42:50.441Z,2.05
2022-09-14T03:45:19.013Z,2.40
2022-09-14T03:47:46.875Z,2.35
2022-09-14T03:50:15.091Z,2.05
2022-09-14T03:52:41.813Z,2.05
2022-09-14T03:55:09.523Z,2.00
2022-09-14T03:57:36.691Z,2.00
2022-09-14T04:00:05.705Z,2.03
2022-09-14T04:02:32.500Z,1.92
2022-09-14T04:04:59.237Z,1.80
2022-09-14T04:07:26.148Z,1.90
2022-09-14T04:09:52.912Z,1.80
2022-09-14T04:12:19.664Z,2.00
2022-09-14T04:14:46.383Z,2.00
2022-09-14T04:17:13.041Z,1.70
2022-09-14T04:19:41.557Z,1.60
2022-09-14T04:22:08.994Z,1.73
2022-09-14T04:24:35.805Z,1.75
2022-09-14T04:27:02.548Z,1.55
2022-09-14T04:29:30.583Z,1.80
2022-09-14T04:31:58.021Z,2.17
2022-09-14T04:34:25.140Z,1.60
2022-09-14T04:36:51.816Z,1.80
2022-09-14T04:39:20.121Z,1.70
2022-09-14T04:41:47.135Z,1.50
2022-09-14T04:44:13.963Z,1.70
2022-09-14T04:46:46.445Z,1.65
2022-09-14T04:49:14.896Z,1.45
2022-09-14T04:51:41.637Z,1.35
2022-09-14T04:54:09.727Z,1.33
2022-09-14T04:56:37.323Z,1.60
2022-09-14T04:59:05.682Z,1.60
2022-09-14T05:01:36.654Z,1.30
2022-09-14T05:04:04.398Z,1.50
2022-09-14T05:06:33.636Z,1.35
2022-09-14T05:09:03.133Z,1.35
2022-09-14T05:11:34.107Z,1.40
2022-09-14T05:14:02.075Z,1.40
2022-09-14T05:16:31.378Z,1.20
2022-09-14T05:19:01.977Z,1.13
2022-09-14T05:21:31.278Z,1.10
2022-09-14T05:24:12.546Z,1.50
2022-09-14T05:26:39.443Z,1.58
2022-09-14T05:29:06.168Z,1.48
2022-09-14T05:31:33.762Z,1.27
2022-09-14T05:34:00.735Z,1.30
2022-09-14T05:36:27.584Z,1.40
2022-09-14T05:38:54.499Z,1.95
2022-09-14T05:41:21.163Z,1.25
2022-09-14T05:43:47.897Z,1.27
2022-09-14T05:46:17.246Z,1.50
2022-09-14T05:48:44.067Z,1.20
2022-09-14T05:51:16.541Z,1.30
2022-09-14T05:53:47.544Z,1.30
2022-09-14T05:56:14.731Z,1.30
2022-09-14T05:58:42.542Z,1.73
2022-09-14T06:01:11.927Z,1.70
2022-09-14T06:03:40.916Z,2.10
2022-09-14T06:06:09.061Z,1.48
2022-09-14T06:08:35.925Z,1.20
2022-09-14T06:11:14.991Z,1.23
2022-09-14T06:13:42.458Z,1.23
2022-09-14T06:16:12.134Z,1.52
2022-09-14T06:18:39.861Z,1.30
2022-09-14T06:21:07.214Z,1.30
2022-09-14T06:23:34.829Z,1.30
2022-09-14T06:26:03.475Z,1.75
2022-09-14T06:28:30.799Z,1.40
2022-09-14T06:30:57.656Z,1.52
2022-09-14T06:33:25.006Z,1.33
2022-09-14T06:36:12.705Z,1.60
2022-09-14T06:38:42.480Z,1.20
2022-09-14T06:41:12.206Z,1.50
2022-09-14T06:43:41.530Z,1.65
2022-09-14T06:46:12.041Z,1.90
2022-09-14T06:48:44.120Z,1.42
2022-09-14T06:51:23.012Z,1.63
2022-09-14T06:53:50.783Z,1.65
2022-09-14T06:56:18.477Z,1.63
2022-09-14T06:58:45.636Z,1.90
2022-09-14T07:01:15.604Z,1.60
2022-09-14T07:03:47.102Z,2.20
2022-09-14T07:06:17.219Z,2.30
2022-09-14T07:08:44.491Z,2.10
2022-09-14T07:11:12.727Z,1.83
2022-09-14T07:13:40.912Z,2.03
2022-09-14T07:16:08.160Z,2.33
2022-09-14T07:18:35.884Z,3.30
2022-09-14T07:21:07.136Z,2.25
2022-09-14T07:23:36.208Z,2.40
2022-09-14T07:26:11.785Z,2.30
2022-09-14T07:28:39.513Z,2.40
2022-09-14T07:31:18.947Z,2.05
2022-09-14T07:33:46.300Z,2.45
2022-09-14T07:36:14.321Z,2.40
2022-09-14T07:38:52.096Z,2.85
2022-09-14T07:41:25.594Z,2.60
2022-09-14T07:43:56.628Z,2.53
2022-09-14T07:46:24.280Z,2.45
2022-09-14T07:49:02.319Z,2.30
2022-09-14T07:51:30.460Z,2.35
2022-09-14T07:53:59.671Z,2.70
2022-09-14T07:56:26.444Z,2.75
2022-09-14T07:59:07.144Z,2.38
2022-09-14T08:01:43.323Z,2.33
2022-09-14T08:04:10.132Z,2.38
2022-09-14T08:06:37.363Z,2.15
2022-09-14T08:09:07.545Z,2.58
2022-09-14T08:11:35.268Z,2.83
2022-09-14T08:14:04.688Z,2.42
2022-09-14T08:16:33.293Z,3.20
2022-09-14T08:19:02.552Z,2.45
2022-09-14T08:21:32.108Z,2.92
2022-09-14T08:23:59.498Z,2.42
2022-09-14T08:26:27.217Z,2.25
2022-09-14T08:28:55.323Z,2.63
2022-09-14T08:31:24.696Z,3.10
2022-09-14T08:33:57.210Z,2.97
2022-09-14T08:36:25.987Z,2.55
2022-09-14T08:38:52.760Z,3.20
2022-09-14T08:41:31.829Z,2.40
2022-09-14T08:44:13.416Z,2.55
2022-09-14T08:47:02.748Z,2.55
2022-09-14T08:49:51.859Z,2.67
2022-09-14T08:52:35.761Z,2.70
2022-09-14T08:55:37.424Z,2.88
2022-09-14T08:58:25.095Z,2.50
2022-09-14T09:01:16.997Z,1.85
2022-09-14T09:03:57.193Z,2.22
2022-09-14T09:06:44.349Z,2.10
2022-09-14T09:09:29.234Z,3.00
2022-09-14T09:11:56.255Z,3.38
2022-09-14T09:14:38.872Z,3.47
2022-09-14T09:17:16.462Z,3.67
2022-09-14T09:19:59.643Z,4.03
2022-09-14T09:22:30.151Z,3.40
2022-09-14T09:24:58.544Z,3.13
2022-09-14T09:27:27.771Z,2.85
2022-09-14T09:29:54.592Z,3.30
2022-09-14T09:32:24.160Z,3.00
2022-09-14T09:34:51.608Z,3.10
2022-09-14T09:37:21.686Z,3.85
2022-09-14T09:39:49.389Z,3.20
2022-09-14T09:42:26.943Z,3.08
2022-09-14T09:45:01.240Z,3.08
2022-09-14T09:47:39.452Z,3.05
2022-09-14T09:50:18.788Z,2.92
2022-09-14T09:52:57.654Z,2.80
2022-09-14T09:55:28.327Z,3.45
2022-09-14T09:57:54.988Z,3.60
2022-09-14T10:00:26.839Z,3.22
2022-09-14T10:02:54.858Z,3.30
2022-09-14T10:05:23.705Z,3.28
2022-09-14T10:07:50.323Z,4.00
2022-09-14T10:10:19.934Z,3.85
2022-09-14T10:12:52.337Z,3.80
2022-09-14T10:15:26.200Z,3.95
2022-09-14T10:18:08.891Z,3.67
2022-09-14T10:20:37.848Z,3.63
2022-09-14T10:23:19.828Z,3.45
2022-09-14T10:25:48.848Z,3.88
2022-09-14T10:28:30.947Z,3.45
2022-09-14T10:31:15.961Z,3.50
2022-09-14T10:33:42.963Z,3.95
2022-09-14T10:36:15.724Z,3.35
2022-09-14T10:39:01.154Z,3.88
2022-09-14T10:41:52.623Z,3.00
2022-09-14T10:44:59.470Z,3.22
2022-09-14T10:47:29.090Z,3.13
2022-09-14T10:50:28.032Z,2.85
2022-09-14T10:53:34.284Z,2.60
2022-09-14T10:56:21.227Z,2.53
2022-09-14T10:59:15.557Z,3.35
2022-09-14T11:02:05.876Z,2.70
2022-09-14T11:05:05.792Z,2.65
2022-09-14T11:08:14.630Z,2.60
2022-09-14T11:11:16.957Z,2.92
2022-09-14T11:13:55.362Z,3.08
2022-09-14T11:16:47.913Z,3.28
2022-09-14T11:19:24.467Z,3.67
2022-09-14T11:22:05.912Z,2.67
2022-09-14T11:24:57.164Z,3.15
2022-09-14T11:27:41.519Z,2.80
2022-09-14T11:30:21.324Z,2.75
2022-09-14T11:33:07.358Z,3.00
2022-09-14T11:35:48.312Z,3.20
2022-09-14T11:38:31.148Z,3.15
2022-09-14T11:41:03.706Z,2.67
2022-09-14T11:43:59.109Z,2.65
2022-09-14T11:46:36.439Z,3.08
2022-09-14T11:49:39.789Z,2.47
2022-09-14T11:52:21.641Z,2.60
2022-09-14T11:54:50.309Z,2.55
2022-09-14T11:57:27.904Z,2.40
2022-09-14T11:59:59.775Z,2.60
2022-09-14T12:02:26.493Z,3.00
2022-09-14T12:05:05.638Z,2.28
2022-09-14T12:07:47.351Z,2.90
2022-09-14T12:10:14.050Z,2.63
2022-09-14T12:12:53.179Z,2.30
2022-09-14T12:15:28.901Z,2.30
2022-09-14T12:18:04.188Z,2.95
2022-09-14T12:20:35.506Z,2.03
2022-09-14T12:23:25.299Z,2.22
2022-09-14T12:25:57.239Z,2.60
2022-09-14T12:28:43.541Z,2.08
2022-09-14T12:31:28.589Z,2.00
2022-09-14T12:34:04.970Z,1.73
2022-09-14T12:36:52.121Z,2.35
2022-09-14T12:39:35.716Z,2.10
2022-09-14T12:42:25.472Z,2.10
2022-09-14T12:44:52.556Z,1.10
2022-09-14T12:47:25.436Z,1.60
2022-09-14T12:50:13.572Z,1.40
2022-09-14T12:53:26.839Z,1.40
2022-09-14T12:56:00.640Z,1.30
2022-09-14T12:58:34.866Z,1.50
2022-09-14T13:01:34.356Z,1.42
2022-09-14T13:04:02.925Z,1.50
2022-09-14T13:06:40.759Z,1.70
2022-09-14T13:09:22.653Z,1.30
2022-09-14T13:12:03.020Z,1.50
2022-09-14T13:17:24.123Z,1.65
2022-09-14T13:19:59.239Z,1.73
2022-09-14T13:22:29.369Z,1.90
2022-09-14T13:24:58.892Z,2.00
2022-09-14T13:27:34.558Z,2.13
2022-09-14T13:30:20.459Z,2.20
2022-09-14T13:32:50.574Z,1.73
2022-09-14T13:36:03.602Z,1.88
2022-09-14T13:38:33.338Z,1.90
2022-09-14T13:41:19.820Z,1.77
2022-09-14T13:43:51.111Z,1.58
2022-09-14T13:46:20.440Z,1.50
2022-09-14T13:48:48.216Z,1.88
2022-09-14T13:51:15.686Z,1.80
2022-09-14T13:53:50.004Z,1.60
2022-09-14T13:56:25.145Z,1.58
2022-09-14T13:59:16.613Z,1.48
2022-09-14T14:01:50.591Z,1.42
2022-09-14T14:04:30.655Z,1.75
2022-09-14T14:07:17.494Z,1.25
2022-09-14T14:09:53.256Z,1.38
2022-09-14T14:12:33.269Z,1.70
2022-09-14T14:15:02.542Z,1.33
2022-09-14T14:17:29.157Z,1.20
2022-09-14T14:19:58.507Z,1.25
2022-09-14T14:22:33.875Z,1.48
2022-09-14T14:25:16.996Z,1.48
2022-09-14T14:27:46.634Z,1.42
2022-09-14T14:30:17.966Z,2.00
2022-09-14T14:32:50.954Z,1.60
2022-09-14T14:35:22.340Z,1.73
2022-09-14T14:37:50.251Z,1.40
2022-09-14T14:40:17.906Z,1.67
2022-09-14T14:42:45.443Z,1.70
2022-09-14T14:45:18.874Z,1.40
2022-09-14T14:47:50.651Z,1.60
2022-09-14T14:50:26.633Z,1.27
2022-09-14T14:52:53.859Z,1.30
2022-09-14T14:55:21.616Z,1.55
2022-09-14T14:57:49.712Z,1.20
2022-09-14T15:00:24.342Z,1.38
2022-09-14T15:02:51.577Z,1.17
2022-09-14T15:05:19.028Z,1.02
2022-09-14T15:07:45.896Z,1.40
2022-09-14T15:10:16.542Z,1.52
2022-09-14T15:12:43.903Z,1.27
2022-09-14T15:15:16.444Z,1.20
2022-09-14T15:17:43.527Z,1.77
2022-09-14T15:20:11.195Z,1.58
2022-09-14T15:22:38.180Z,0.90
2022-09-14T15:25:05.927Z,1.45
2022-09-14T15:27:33.162Z,1.25
2022-09-14T15:30:00.109Z,0.90
2022-09-14T15:32:26.947Z,0.98
2022-09-14T15:34:53.921Z,0.98
2022-09-14T15:37:20.594Z,1.10
2022-09-14T15:39:50.510Z,1.27
2022-09-14T15:42:18.537Z,1.00
2022-09-14T15:44:46.673Z,0.93
2022-09-14T15:47:14.784Z,0.93
2022-09-14T15:49:42.452Z,0.90
2022-09-14T15:52:10.306Z,1.17
2022-09-14T15:54:38.919Z,1.08
2022-09-14T15:57:08.125Z,0.80
2022-09-14T15:59:34.979Z,1.00
2022-09-14T16:02:02.109Z,1.23
2022-09-14T16:04:29.035Z,0.90
2022-09-14T16:06:55.695Z,0.80
2022-09-14T16:09:23.135Z,1.42
2022-09-14T16:11:50.162Z,0.95
2022-09-14T16:14:17.268Z,0.80
2022-09-14T16:16:44.005Z,0.77
2022-09-14T16:19:13.808Z,0.73
2022-09-14T16:21:42.273Z,1.20
2022-09-14T16:24:16.670Z,0.80
2022-09-14T16:26:44.119Z,1.00
2022-09-14T16:29:13.350Z,1.20
2022-09-14T16:31:41.939Z,0.80
2022-09-14T16:34:14.179Z,0.80
2022-09-14T16:36:41.645Z,1.00
2022-09-14T16:39:12.968Z,0.80
2022-09-14T16:41:41.772Z,1.05
2022-09-14T16:44:12.999Z,0.70
2022-09-14T16:46:39.856Z,0.95
2022-09-14T16:49:06.750Z,0.80
2022-09-14T16:51:34.019Z,0.93
2022-09-14T16:54:01.536Z,0.50
2022-09-14T16:56:31.549Z,0.80
2022-09-14T16:58:59.749Z,0.75
2022-09-14T17:01:33.765Z,0.95
2022-09-14T17:04:08.396Z,0.73
2022-09-14T17:06:36.663Z,0.70
2022-09-14T17:09:06.297Z,0.65
2022-09-14T17:11:34.361Z,0.77
2022-09-14T17:14:01.691Z,0.95
2022-09-14T17:16:29.469Z,0.60
2022-09-14T17:19:02.308Z,0.95
2022-09-14T17:21:35.555Z,1.10
2022-09-14T17:24:04.443Z,0.60
2022-09-14T17:26:32.518Z,0.70
2022-09-14T17:29:00.163Z,0.77
2022-09-14T17:31:31.957Z,0.65
2022-09-14T17:34:00.489Z,0.90
2022-09-14T17:36:27.773Z,0.90
2022-09-14T17:38:57.893Z,0.90
2022-09-14T17:41:28.048Z,0.75
2022-09-14T17:43:57.763Z,0.68
2022-09-14T17:46:25.123Z,0.60
2022-09-14T17:48:52.180Z,1.17
2022-09-14T17:51:24.272Z,0.80
2022-09-14T17:53:53.598Z,1.13
2022-09-14T17:56:22.271Z,0.93
2022-09-14T17:58:56.867Z,0.90
2022-09-14T18:01:23.717Z,0.90
2022-09-14T18:03:54.175Z,1.30
2022-09-14T18:06:23.778Z,1.10
2022-09-14T18:09:02.981Z,1.30
2022-09-14T18:11:31.115Z,1.02
2022-09-14T18:13:58.101Z,0.98
2022-09-14T18:16:25.648Z,1.10
2022-09-14T18:18:52.417Z,1.40
2022-09-14T18:21:19.717Z,1.30
2022-09-14T18:23:51.164Z,1.10
2022-09-14T18:26:18.383Z,1.50
2022-09-14T18:28:46.452Z,1.02
2022-09-14T18:31:16.014Z,0.93
2022-09-14T18:33:52.064Z,1.50
2022-09-14T18:36:20.199Z,1.50
2022-09-14T18:38:48.634Z,1.60
2022-09-14T18:41:17.030Z,1.30
2022-09-14T18:43:46.181Z,1.38
2022-09-14T18:46:13.936Z,1.17
2022-09-14T18:48:43.640Z,0.93
2022-09-14T18:51:12.677Z,1.15
2022-09-14T18:53:39.993Z,1.05
2022-09-14T18:56:12.389Z,1.10
2022-09-14T18:58:41.452Z,1.10
2022-09-14T19:01:09.356Z,1.20
2022-09-14T19:03:38.026Z,1.02
2022-09-14T19:06:13.170Z,0.80
2022-09-14T19:08:40.697Z,0.88
2022-09-14T19:11:10.149Z,1.33
2022-09-14T19:13:54.860Z,1.00
2022-09-14T19:16:29.958Z,1.20
2022-09-14T19:18:57.320Z,1.00
2022-09-14T19:21:26.501Z,1.08
2022-09-14T19:24:06.187Z,1.80
2022-09-14T19:26:39.074Z,4.50
2022-09-14T19:29:10.058Z,1.95
2022-09-14T19:31:37.195Z,1.30
2022-09-14T19:34:05.029Z,1.48
2022-09-14T19:36:34.828Z,1.70
2022-09-14T19:39:02.473Z,1.83
2022-09-14T19:41:30.872Z,1.88
2022-09-14T19:43:58.039Z,1.52
2022-09-14T19:46:26.315Z,1.45
2022-09-14T19:48:53.681Z,1.52
2022-09-14T19:51:23.209Z,1.33
2022-09-14T19:53:52.151Z,1.25
2022-09-14T19:56:21.713Z,1.45
2022-09-14T19:58:50.327Z,1.40
2022-09-14T20:01:19.298Z,1.17
2022-09-14T20:03:46.979Z,1.35
2022-09-14T20:06:19.545Z,1.45
2022-09-14T20:08:47.332Z,1.60
2022-09-14T20:11:19.757Z,1.42
2022-09-14T20:13:50.105Z,1.80
2022-09-14T20:16:21.200Z,1.70
2022-09-14T20:18:49.190Z,2.08
2022-09-14T20:21:19.289Z,2.30
2022-09-14T20:24:11.404Z,2.33
2022-09-14T20:26:33.415Z,2.00
2022-09-14T20:29:01.244Z,2.42
2022-09-14T20:31:29.323Z,2.15
2022-09-14T20:33:57.234Z,2.25
2022-09-14T20:36:25.496Z,2.22
2022-09-14T20:38:54.533Z,1.30
2022-09-14T20:41:24.187Z,1.65
2022-09-14T20:43:51.768Z,1.33
2022-09-14T20:46:21.693Z,1.10
2022-09-14T20:48:49.444Z,1.00
2022-09-14T20:51:20.624Z,1.02
2022-09-14T20:53:47.952Z,1.42
2022-09-14T20:56:20.239Z,1.35
2022-09-14T20:58:47.430Z,1.20
2022-09-14T21:01:17.482Z,1.10
2022-09-14T21:03:45.929Z,1.00
2022-09-14T21:06:20.891Z,0.90
2022-09-14T21:08:48.559Z,1.27
2022-09-14T21:11:21.792Z,0.90
2022-09-14T21:13:49.691Z,1.02
2022-09-14T21:16:32.230Z,1.13
2022-09-14T21:19:01.584Z,0.93
2022-09-14T21:21:28.812Z,0.90
2022-09-14T21:23:57.077Z,0.90
2022-09-14T21:26:25.270Z,0.98
2022-09-14T21:28:56.960Z,1.05
2022-09-14T21:31:24.640Z,0.90
2022-09-14T21:33:54.260Z,1.10
2022-09-14T21:36:26.847Z,0.90
2022-09-14T21:38:56.956Z,1.05
2022-09-14T21:41:26.615Z,1.10
2022-09-14T21:43:53.567Z,1.15
2022-09-14T21:46:21.583Z,1.27
2022-09-14T21:48:48.426Z,1.10
2022-09-14T21:51:27.921Z,0.90
2022-09-14T21:54:05.032Z,1.07
2022-09-14T21:56:34.119Z,1.10
2022-09-14T21:59:03.028Z,1.00
2022-09-14T22:01:30.480Z,1.10
2022-09-14T22:03:58.160Z,0.80
2022-09-14T22:06:27.822Z,1.10
2022-09-14T22:08:55.845Z,1.00
2022-09-14T22:11:24.795Z,1.00
2022-09-14T22:13:56.005Z,1.00
2022-09-14T22:16:23.838Z,1.10
2022-09-14T22:18:58.700Z,0.93
2022-09-14T22:21:27.467Z,1.00
2022-09-14T22:23:56.522Z,1.00
2022-09-14T22:26:23.799Z,1.05
2022-09-14T22:28:51.700Z,1.13
2022-09-14T22:31:21.316Z,1.10
2022-09-14T22:33:48.709Z,1.00
2022-09-14T22:36:16.081Z,1.38
2022-09-14T22:38:42.876Z,1.17
2022-09-14T22:41:18.499Z,1.10
2022-09-14T22:43:46.242Z,0.95
2022-09-14T22:46:13.819Z,1.20
2022-09-14T22:48:41.045Z,1.00
2022-09-14T22:51:10.270Z,1.20
2022-09-14T22:53:37.547Z,1.00
2022-09-14T22:56:20.511Z,1.10
2022-09-14T22:58:48.553Z,0.85
2022-09-14T23:01:18.614Z,1.15
2022-09-14T23:03:45.480Z,1.08
2022-09-14T23:06:12.593Z,1.00
2022-09-14T23:08:39.974Z,1.10
2022-09-14T23:11:11.265Z,1.42
2022-09-14T23:13:39.905Z,1.40
2022-09-14T23:16:14.706Z,0.98
2022-09-14T23:18:41.853Z,1.13
2022-09-14T23:21:09.275Z,1.15
2022-09-14T23:23:38.100Z,1.60
2022-09-14T23:26:06.975Z,0.93
2022-09-14T23:28:33.817Z,1.48
2022-09-14T23:31:00.640Z,1.25
2022-09-14T23:33:28.772Z,0.93
2022-09-14T23:35:55.829Z,1.17
2022-09-14T23:38:23.136Z,1.27
2022-09-14T23:40:50.236Z,1.15
2022-09-14T23:43:18.271Z,1.10
2022-09-14T23:45:46.461Z,1.20
2022-09-14T23:48:13.908Z,1.00
2022-09-14T23:50:40.839Z,1.20
2022-09-14T23:53:07.925Z,1.00
2022-09-14T23:55:34.873Z,1.20
2022-09-14T23:58:01.533Z,1.10
